createdAt,value
2018-09-05T00:00:46.293Z,0.00
2018-09-05T00:01:46.316Z,0.00
2018-09-05T00:03:39.240Z,0.00
2018-09-05T00:04:39.253Z,0.00
2018-09-05T00:06:32.174Z,0.00
2018-09-05T00:07:32.190Z,0.00
2018-09-05T00:09:25.103Z,0.00
2018-09-05T00:10:25.126Z,0.00
2018-09-05T00:12:18.046Z,0.00
2018-09-05T00:13:18.059Z,0.00
2018-09-05T00:15:10.971Z,0.00
2018-09-05T00:16:10.993Z,0.00
2018-09-05T00:18:03.912Z,0.00
2018-09-05T00:19:03.927Z,0.00
2018-09-05T00:20:56.841Z,0.00
2018-09-05T00:21:56.864Z,0.00
2018-09-05T00:23:49.782Z,0.00
2018-09-05T00:24:49.797Z,0.00
2018-09-05T00:26:42.713Z,0.00
2018-09-05T00:27:42.728Z,0.00
2018-09-05T00:29:35.638Z,0.00
2018-09-05T00:30:35.661Z,0.00
2018-09-05T00:32:28.586Z,0.00
2018-09-05T00:33:28.594Z,0.00
2018-09-05T00:35:21.511Z,0.00
2018-09-05T00:36:21.530Z,0.00
2018-09-05T00:38:14.449Z,0.00
2018-09-05T00:39:14.464Z,0.00
2018-09-05T00:41:07.375Z,0.00
2018-09-05T00:42:07.396Z,0.00
2018-09-05T00:44:00.314Z,0.00
2018-09-05T00:45:00.330Z,0.00
2018-09-05T00:46:53.249Z,0.00
2018-09-05T00:47:53.263Z,0.00
2018-09-05T00:49:46.176Z,0.00
2018-09-05T00:50:46.214Z,0.00
2018-09-05T00:52:39.118Z,0.00
2018-09-05T00:53:39.138Z,0.00
2018-09-05T00:55:32.045Z,0.00
2018-09-05T00:56:32.075Z,0.00
2018-09-05T00:58:24.985Z,0.00
2018-09-05T00:59:25.001Z,0.00
2018-09-05T01:01:17.909Z,0.00
2018-09-05T01:02:17.933Z,0.00
2018-09-05T01:04:10.855Z,0.00
2018-09-05T01:05:10.869Z,0.00
2018-09-05T01:07:03.788Z,0.00
2018-09-05T01:08:03.803Z,0.00
2018-09-05T01:09:56.715Z,0.00
2018-09-05T01:10:56.735Z,0.00
2018-09-05T01:12:49.655Z,0.00
2018-09-05T01:13:49.666Z,0.00
2018-09-05T01:15:42.582Z,0.00
2018-09-05T01:16:42.603Z,0.00
2018-09-05T01:18:35.522Z,0.00
2018-09-05T01:19:35.536Z,0.00
2018-09-05T01:21:28.447Z,0.00
2018-09-05T01:22:28.469Z,0.00
2018-09-05T01:24:21.440Z,0.00
2018-09-05T01:25:21.405Z,0.00
2018-09-05T01:27:14.325Z,0.00
2018-09-05T01:28:14.336Z,0.00
2018-09-05T01:30:07.248Z,0.00
2018-09-05T01:31:07.268Z,0.00
2018-09-05T01:33:00.185Z,0.00
2018-09-05T01:34:00.200Z,0.00
2018-09-05T01:35:53.109Z,0.00
2018-09-05T01:36:53.131Z,0.00
2018-09-05T01:38:46.048Z,0.00
2018-09-05T01:39:46.062Z,0.00
2018-09-05T01:41:38.972Z,0.00
2018-09-05T01:42:38.994Z,0.00
2018-09-05T01:44:31.915Z,0.00
2018-09-05T01:45:31.927Z,0.00
2018-09-05T01:47:24.850Z,0.00
2018-09-05T01:48:24.858Z,0.00
2018-09-05T01:50:17.768Z,0.00
2018-09-05T01:51:17.791Z,0.00
2018-09-05T01:53:10.708Z,0.00
2018-09-05T01:54:10.724Z,0.00
2018-09-05T01:56:03.631Z,0.00
2018-09-05T01:57:03.655Z,0.00
2018-09-05T01:58:56.577Z,0.00
2018-09-05T01:59:56.588Z,0.00
2018-09-05T02:01:49.501Z,0.00
2018-09-05T02:02:49.524Z,0.00
2018-09-05T02:04:42.439Z,0.00
2018-09-05T02:05:42.455Z,0.00
2018-09-05T02:07:35.846Z,0.00
2018-09-05T02:08:35.631Z,0.00
2018-09-05T02:10:28.499Z,0.00
2018-09-05T02:11:28.682Z,0.00
2018-09-05T02:13:21.333Z,0.00
2018-09-05T02:14:21.346Z,0.00
2018-09-05T02:16:14.268Z,0.00
2018-09-05T02:17:14.295Z,0.00
2018-09-05T02:19:07.201Z,0.00
2018-09-05T02:20:07.216Z,0.00
2018-09-05T02:22:00.125Z,0.00
2018-09-05T02:23:00.150Z,0.00
2018-09-05T02:24:53.064Z,0.00
2018-09-05T02:25:53.077Z,0.00
2018-09-05T02:27:45.999Z,0.00
2018-09-05T02:28:46.010Z,0.00
2018-09-05T02:30:38.924Z,0.00
2018-09-05T02:31:38.947Z,0.00
2018-09-05T02:33:31.867Z,0.00
2018-09-05T02:34:31.881Z,0.00
2018-09-05T02:36:24.787Z,0.00
2018-09-05T02:37:24.808Z,0.00
2018-09-05T02:39:17.727Z,0.00
2018-09-05T02:40:17.788Z,0.00
2018-09-05T02:42:10.662Z,0.00
2018-09-05T02:43:10.680Z,0.00
2018-09-05T02:45:03.602Z,0.00
2018-09-05T02:46:03.613Z,0.00
2018-09-05T02:47:56.530Z,0.00
2018-09-05T02:48:56.544Z,0.00
2018-09-05T02:50:49.451Z,0.00
2018-09-05T02:51:49.479Z,0.00
2018-09-05T02:53:42.394Z,0.00
2018-09-05T02:54:42.405Z,0.00
2018-09-05T02:56:35.318Z,0.00
2018-09-05T02:57:35.338Z,0.00
2018-09-05T02:59:28.801Z,0.00
2018-09-05T03:00:28.269Z,0.00
2018-09-05T03:02:21.204Z,0.00
2018-09-05T03:03:21.213Z,0.00
2018-09-05T03:05:14.177Z,0.00
2018-09-05T03:06:14.148Z,0.00
2018-09-05T03:08:07.070Z,0.00
2018-09-05T03:09:07.084Z,0.00
2018-09-05T03:10:59.994Z,0.00
2018-09-05T03:12:00.015Z,0.00
2018-09-05T03:13:52.940Z,0.00
2018-09-05T03:14:52.971Z,0.00
2018-09-05T03:16:45.859Z,0.00
2018-09-05T03:17:45.882Z,0.00
2018-09-05T03:19:38.797Z,0.00
2018-09-05T03:20:38.814Z,0.00
2018-09-05T03:22:31.727Z,0.00
2018-09-05T03:23:31.815Z,0.00
2018-09-05T03:25:24.660Z,0.00
2018-09-05T03:26:24.674Z,0.00
2018-09-05T03:28:17.612Z,0.00
2018-09-05T03:29:17.625Z,0.00
2018-09-05T03:31:10.535Z,0.00
2018-09-05T03:32:10.592Z,0.00
2018-09-05T03:34:03.470Z,0.00
2018-09-05T03:35:03.483Z,0.00
2018-09-05T03:36:56.402Z,0.00
2018-09-05T03:37:56.420Z,0.00
2018-09-05T03:39:49.338Z,0.00
2018-09-05T03:40:49.349Z,0.00
2018-09-05T03:42:42.263Z,0.00
2018-09-05T03:43:42.285Z,0.00
2018-09-05T03:45:35.201Z,0.00
2018-09-05T03:46:35.216Z,0.00
2018-09-05T03:48:28.128Z,0.00
2018-09-05T03:49:28.143Z,0.00
2018-09-05T03:51:21.055Z,0.00
2018-09-05T03:52:21.075Z,0.00
2018-09-05T03:54:13.997Z,0.00
2018-09-05T03:55:14.002Z,0.00
2018-09-05T03:57:06.926Z,0.00
2018-09-05T03:58:06.950Z,0.00
2018-09-05T03:59:59.865Z,0.00
2018-09-05T04:00:59.880Z,0.00
2018-09-05T04:02:52.788Z,0.00
2018-09-05T04:03:52.812Z,0.00
2018-09-05T04:05:45.728Z,0.00
2018-09-05T04:06:45.743Z,0.00
2018-09-05T04:08:38.667Z,0.00
2018-09-05T04:09:38.673Z,0.00
2018-09-05T04:11:31.617Z,0.00
2018-09-05T04:12:31.604Z,0.00
2018-09-05T04:14:24.526Z,0.00
2018-09-05T04:15:24.535Z,0.00
2018-09-05T04:17:17.441Z,0.00
2018-09-05T04:18:17.475Z,0.00
2018-09-05T04:20:10.396Z,0.00
2018-09-05T04:21:10.397Z,0.00
2018-09-05T04:23:03.320Z,0.00
2018-09-05T04:24:03.331Z,0.00
2018-09-05T04:25:56.450Z,0.00
2018-09-05T04:26:56.462Z,0.00
2018-09-05T04:28:49.371Z,0.00
2018-09-05T04:29:49.463Z,0.00
2018-09-05T04:31:42.309Z,0.00
2018-09-05T04:32:42.322Z,0.00
2018-09-05T04:34:35.241Z,0.00
2018-09-05T04:35:35.254Z,0.00
2018-09-05T04:37:28.165Z,0.00
2018-09-05T04:38:28.181Z,0.00
2018-09-05T04:40:21.102Z,5.63
2018-09-05T04:41:21.111Z,5.63
2018-09-05T04:43:14.020Z,5.63
2018-09-05T04:44:14.039Z,5.63
2018-09-05T04:46:06.959Z,5.63
2018-09-05T04:47:06.970Z,11.25
2018-09-05T04:48:59.884Z,11.25
2018-09-05T04:49:59.902Z,11.25
2018-09-05T04:51:52.817Z,11.25
2018-09-05T04:52:52.829Z,16.88
2018-09-05T04:54:45.747Z,16.88
2018-09-05T04:55:45.759Z,16.88
2018-09-05T04:57:38.666Z,22.50
2018-09-05T04:58:38.691Z,22.50
2018-09-05T05:00:31.610Z,28.13
2018-09-05T05:01:31.616Z,28.13
2018-09-05T05:03:24.530Z,28.13
2018-09-05T05:04:24.550Z,33.75
2018-09-05T05:06:17.466Z,33.75
2018-09-05T05:07:17.482Z,39.38
2018-09-05T05:09:10.391Z,39.38
2018-09-05T05:10:10.410Z,45.00
2018-09-05T05:12:03.328Z,45.00
2018-09-05T05:13:03.344Z,45.00
2018-09-05T05:14:56.254Z,50.63
2018-09-05T05:15:56.273Z,50.63
2018-09-05T05:17:49.187Z,56.25
2018-09-05T05:18:49.203Z,56.25
2018-09-05T05:20:42.125Z,61.88
2018-09-05T05:21:42.130Z,61.88
2018-09-05T05:23:35.127Z,67.50
2018-09-05T05:24:35.063Z,67.50
2018-09-05T05:26:27.978Z,73.13
2018-09-05T05:27:27.992Z,73.13
2018-09-05T05:29:20.900Z,78.75
2018-09-05T05:30:20.920Z,78.75
2018-09-05T05:32:13.839Z,84.38
2018-09-05T05:33:13.850Z,84.38
2018-09-05T05:35:06.760Z,90.00
2018-09-05T05:36:06.780Z,90.00
2018-09-05T05:37:59.699Z,90.00
2018-09-05T05:38:59.709Z,95.63
2018-09-05T05:40:52.628Z,95.63
2018-09-05T05:41:52.655Z,101.25
2018-09-05T05:43:45.558Z,101.25
2018-09-05T05:44:46.108Z,106.88
2018-09-05T05:46:38.494Z,112.50
2018-09-05T05:47:38.503Z,106.88
2018-09-05T05:49:31.412Z,112.50
2018-09-05T05:50:31.437Z,112.50
2018-09-05T05:52:24.348Z,123.75
2018-09-05T05:53:24.367Z,118.13
2018-09-05T05:55:17.275Z,123.75
2018-09-05T05:56:17.298Z,123.75
2018-09-05T05:58:10.215Z,129.38
2018-09-05T05:59:10.227Z,135.00
2018-09-05T06:01:03.224Z,140.63
2018-09-05T06:02:03.164Z,174.38
2018-09-05T06:03:56.072Z,219.38
2018-09-05T06:04:56.094Z,275.63
2018-09-05T06:06:49.010Z,309.38
2018-09-05T06:07:49.023Z,309.38
2018-09-05T06:09:41.935Z,326.25
2018-09-05T06:10:41.960Z,326.25
2018-09-05T06:12:34.879Z,337.50
2018-09-05T06:13:34.895Z,348.75
2018-09-05T06:15:27.821Z,348.75
2018-09-05T06:16:27.865Z,348.75
2018-09-05T06:18:20.759Z,365.63
2018-09-05T06:19:20.776Z,376.88
2018-09-05T06:21:13.698Z,393.75
2018-09-05T06:22:13.714Z,410.63
2018-09-05T06:24:06.684Z,433.13
2018-09-05T06:25:06.654Z,444.38
2018-09-05T06:26:59.580Z,466.88
2018-09-05T06:27:59.591Z,478.13
2018-09-05T06:29:52.509Z,489.38
2018-09-05T06:30:52.601Z,500.63
2018-09-05T06:32:45.456Z,517.50
2018-09-05T06:33:45.485Z,523.13
2018-09-05T06:35:38.415Z,540.00
2018-09-05T06:36:38.428Z,540.00
2018-09-05T06:38:31.357Z,551.25
2018-09-05T06:39:31.374Z,562.50
2018-09-05T06:41:24.306Z,573.75
2018-09-05T06:42:24.324Z,579.38
2018-09-05T06:44:17.245Z,573.75
2018-09-05T06:45:17.371Z,489.38
2018-09-05T06:47:10.200Z,196.88
2018-09-05T06:48:10.218Z,168.75
2018-09-05T06:50:03.137Z,168.75
2018-09-05T06:51:03.162Z,174.38
2018-09-05T06:52:56.093Z,174.38
2018-09-05T06:53:56.112Z,174.38
2018-09-05T06:55:49.030Z,174.38
2018-09-05T06:56:49.058Z,174.38
2018-09-05T06:58:41.983Z,174.38
2018-09-05T06:59:42.002Z,174.38
2018-09-05T07:01:34.930Z,174.38
2018-09-05T07:02:34.955Z,174.38
2018-09-05T07:04:27.862Z,174.38
2018-09-05T07:05:27.885Z,174.38
2018-09-05T07:07:20.812Z,174.38
2018-09-05T07:08:20.827Z,174.38
2018-09-05T07:10:13.743Z,174.38
2018-09-05T07:11:13.769Z,174.38
2018-09-05T07:13:06.693Z,174.38
2018-09-05T07:14:06.742Z,174.38
2018-09-05T07:15:59.626Z,174.38
2018-09-05T07:16:59.658Z,174.38
2018-09-05T07:18:52.578Z,174.38
2018-09-05T07:19:52.598Z,174.38
2018-09-05T07:21:45.550Z,174.38
2018-09-05T07:22:45.531Z,174.38
2018-09-05T07:24:38.449Z,174.38
2018-09-05T07:25:38.473Z,174.38
2018-09-05T07:27:31.445Z,174.38
2018-09-05T07:28:31.415Z,174.38
2018-09-05T07:30:24.394Z,174.38
2018-09-05T07:31:24.350Z,174.38
2018-09-05T07:33:17.282Z,174.38
2018-09-05T07:34:17.290Z,180.00
2018-09-05T07:36:10.203Z,180.00
2018-09-05T07:37:10.233Z,180.00
2018-09-05T07:39:03.155Z,180.00
2018-09-05T07:40:03.166Z,180.00
2018-09-05T07:41:56.088Z,180.00
2018-09-05T07:42:56.102Z,180.00
2018-09-05T07:44:49.022Z,180.00
2018-09-05T07:45:49.049Z,180.00
2018-09-05T07:47:41.972Z,180.00
2018-09-05T07:48:42.008Z,174.38
2018-09-05T07:50:34.910Z,174.38
2018-09-05T07:51:34.929Z,174.38
2018-09-05T07:53:27.862Z,174.38
2018-09-05T07:54:27.878Z,174.38
2018-09-05T07:56:20.795Z,174.38
2018-09-05T07:57:20.873Z,174.38
2018-09-05T07:59:13.743Z,174.38
2018-09-05T08:00:13.767Z,174.38
2018-09-05T08:02:06.683Z,174.38
2018-09-05T08:03:06.701Z,174.38
2018-09-05T08:04:59.614Z,174.38
2018-09-05T08:05:59.638Z,174.38
2018-09-05T08:07:52.563Z,180.00
2018-09-05T08:08:52.579Z,174.38
2018-09-05T08:10:45.497Z,174.38
2018-09-05T08:11:45.689Z,174.38
2018-09-05T08:13:38.447Z,174.38
2018-09-05T08:14:38.463Z,174.38
2018-09-05T08:16:31.385Z,174.38
2018-09-05T08:17:31.407Z,174.38
2018-09-05T08:19:24.328Z,174.38
2018-09-05T08:20:24.346Z,174.38
2018-09-05T08:22:17.271Z,174.38
2018-09-05T08:23:17.286Z,174.38
2018-09-05T08:25:10.205Z,174.38
2018-09-05T08:26:10.229Z,174.38
2018-09-05T08:28:03.155Z,174.38
2018-09-05T08:29:03.203Z,174.38
2018-09-05T08:30:56.092Z,174.38
2018-09-05T08:31:56.114Z,174.38
2018-09-05T08:33:49.042Z,174.38
2018-09-05T08:34:49.179Z,174.38
2018-09-05T08:36:42.120Z,174.38
2018-09-05T08:37:42.112Z,168.75
2018-09-05T08:39:34.923Z,168.75
2018-09-05T08:40:34.938Z,168.75
2018-09-05T08:42:27.930Z,168.75
2018-09-05T08:43:27.982Z,168.75
2018-09-05T08:45:21.005Z,168.75
2018-09-05T08:46:20.984Z,168.75
2018-09-05T08:48:13.779Z,168.75
2018-09-05T08:49:13.772Z,168.75
2018-09-05T08:51:06.707Z,168.75
2018-09-05T08:52:06.732Z,168.75
2018-09-05T08:53:59.660Z,168.75
2018-09-05T08:54:59.690Z,168.75
2018-09-05T08:56:52.595Z,163.13
2018-09-05T08:57:52.624Z,163.13
2018-09-05T08:59:45.572Z,163.13
2018-09-05T09:00:45.564Z,163.13
2018-09-05T09:02:38.496Z,163.13
2018-09-05T09:03:38.515Z,163.13
2018-09-05T09:05:31.433Z,163.13
2018-09-05T09:06:31.456Z,163.13
2018-09-05T09:08:24.382Z,163.13
2018-09-05T09:09:24.399Z,163.13
2018-09-05T09:11:17.315Z,163.13
2018-09-05T09:12:17.341Z,163.13
2018-09-05T09:14:10.266Z,163.13
2018-09-05T09:15:10.283Z,163.13
2018-09-05T09:17:03.202Z,163.13
2018-09-05T09:18:03.231Z,163.13
2018-09-05T09:19:56.158Z,157.50
2018-09-05T09:20:56.182Z,157.50
2018-09-05T09:22:49.116Z,157.50
2018-09-05T09:23:49.129Z,157.50
2018-09-05T09:25:42.058Z,157.50
2018-09-05T09:26:42.086Z,157.50
2018-09-05T09:28:35.007Z,157.50
2018-09-05T09:29:35.025Z,157.50
2018-09-05T09:31:27.943Z,157.50
2018-09-05T09:32:27.975Z,163.13
2018-09-05T09:34:20.899Z,157.50
2018-09-05T09:35:20.932Z,157.50
2018-09-05T09:37:13.838Z,157.50
2018-09-05T09:38:13.859Z,157.50
2018-09-05T09:40:06.783Z,151.88
2018-09-05T09:41:06.804Z,151.88
2018-09-05T09:42:59.752Z,157.50
2018-09-05T09:43:59.769Z,157.50
2018-09-05T09:45:52.690Z,151.88
2018-09-05T09:46:52.709Z,151.88
2018-09-05T09:48:45.634Z,151.88
2018-09-05T09:49:45.654Z,151.88
2018-09-05T09:51:38.575Z,151.88
2018-09-05T09:52:38.601Z,151.88
2018-09-05T09:54:31.528Z,151.88
2018-09-05T09:55:31.546Z,151.88
2018-09-05T09:57:24.469Z,151.88
2018-09-05T09:58:24.498Z,151.88
2018-09-05T10:00:17.429Z,151.88
2018-09-05T10:01:17.444Z,151.88
2018-09-05T10:03:10.385Z,151.88
2018-09-05T10:04:10.437Z,151.88
2018-09-05T10:06:03.328Z,151.88
2018-09-05T10:07:03.338Z,151.88
2018-09-05T10:08:56.271Z,146.25
2018-09-05T10:09:56.464Z,146.25
2018-09-05T10:11:49.209Z,146.25
2018-09-05T10:12:49.235Z,146.25
2018-09-05T10:14:42.171Z,146.25
2018-09-05T10:15:42.183Z,146.25
2018-09-05T10:17:35.099Z,146.25
2018-09-05T10:18:35.127Z,146.25
2018-09-05T10:20:28.056Z,146.25
2018-09-05T10:21:28.080Z,146.25
2018-09-05T10:23:20.994Z,146.25
2018-09-05T10:24:21.017Z,146.25
2018-09-05T10:26:13.945Z,146.25
2018-09-05T10:27:13.958Z,146.25
2018-09-05T10:29:06.892Z,146.25
2018-09-05T10:30:06.909Z,146.25
2018-09-05T10:31:59.831Z,146.25
2018-09-05T10:32:59.862Z,146.25
2018-09-05T10:34:52.789Z,146.25
2018-09-05T10:35:52.810Z,146.25
2018-09-05T10:37:45.730Z,140.63
2018-09-05T10:38:45.761Z,140.63
2018-09-05T10:40:38.693Z,140.63
2018-09-05T10:41:38.704Z,140.63
2018-09-05T10:43:31.627Z,140.63
2018-09-05T10:44:31.654Z,140.63
2018-09-05T10:46:24.584Z,140.63
2018-09-05T10:47:24.598Z,140.63
2018-09-05T10:49:17.531Z,140.63
2018-09-05T10:50:17.545Z,140.63
2018-09-05T10:52:10.470Z,140.63
2018-09-05T10:53:10.498Z,140.63
2018-09-05T10:55:03.427Z,146.25
2018-09-05T10:56:03.449Z,140.63
2018-09-05T10:57:56.409Z,140.63
2018-09-05T10:58:56.398Z,140.63
2018-09-05T11:00:49.328Z,140.63
2018-09-05T11:01:49.347Z,140.63
2018-09-05T11:03:42.269Z,140.63
2018-09-05T11:04:42.289Z,140.63
2018-09-05T11:06:35.227Z,140.63
2018-09-05T11:07:35.243Z,140.63
2018-09-05T11:09:28.212Z,140.63
2018-09-05T11:10:28.214Z,140.63
2018-09-05T11:12:21.108Z,140.63
2018-09-05T11:13:21.136Z,140.63
2018-09-05T11:15:14.072Z,140.63
2018-09-05T11:16:14.089Z,140.63
2018-09-05T11:18:07.009Z,140.63
2018-09-05T11:19:07.041Z,146.25
2018-09-05T11:20:59.964Z,146.25
2018-09-05T11:21:59.987Z,140.63
2018-09-05T11:23:52.905Z,140.63
2018-09-05T11:24:52.936Z,140.63
2018-09-05T11:26:45.864Z,140.63
2018-09-05T11:27:45.933Z,140.63
2018-09-05T11:29:38.808Z,140.63
2018-09-05T11:30:38.832Z,140.63
2018-09-05T11:32:31.750Z,140.63
2018-09-05T11:33:31.776Z,140.63
2018-09-05T11:35:24.708Z,140.63
2018-09-05T11:36:24.729Z,140.63
2018-09-05T11:38:17.650Z,140.63
2018-09-05T11:39:17.683Z,140.63
2018-09-05T11:41:10.606Z,140.63
2018-09-05T11:42:10.630Z,140.63
2018-09-05T11:44:03.544Z,140.63
2018-09-05T11:45:03.573Z,140.63
2018-09-05T11:46:56.502Z,140.63
2018-09-05T11:47:56.521Z,140.63
2018-09-05T11:49:49.476Z,140.63
2018-09-05T11:50:49.475Z,140.63
2018-09-05T11:52:42.413Z,140.63
2018-09-05T11:53:42.427Z,140.63
2018-09-05T11:55:35.360Z,140.63
2018-09-05T11:56:35.380Z,135.00
2018-09-05T11:58:28.303Z,135.00
2018-09-05T11:59:28.331Z,135.00
2018-09-05T12:01:21.259Z,135.00
2018-09-05T12:02:21.337Z,135.00
2018-09-05T12:04:14.204Z,135.00
2018-09-05T12:05:14.234Z,135.00
2018-09-05T12:07:07.163Z,135.00
2018-09-05T12:08:07.185Z,135.00
2018-09-05T12:10:00.134Z,135.00
2018-09-05T12:11:00.152Z,135.00
2018-09-05T12:12:53.082Z,135.00
2018-09-05T12:13:53.108Z,135.00
2018-09-05T12:15:46.042Z,135.00
2018-09-05T12:16:46.063Z,135.00
2018-09-05T12:18:38.986Z,135.00
2018-09-05T12:19:39.016Z,135.00
2018-09-05T12:21:31.944Z,135.00
2018-09-05T12:22:31.967Z,135.00
2018-09-05T12:24:24.888Z,135.00
2018-09-05T12:25:24.917Z,135.00
2018-09-05T12:27:17.854Z,129.38
2018-09-05T12:28:17.876Z,129.38
2018-09-05T12:30:10.810Z,135.00
2018-09-05T12:31:10.834Z,135.00
2018-09-05T12:33:03.759Z,129.38
2018-09-05T12:34:03.788Z,129.38
2018-09-05T12:35:56.742Z,129.38
2018-09-05T12:36:56.743Z,129.38
2018-09-05T12:38:49.661Z,129.38
2018-09-05T12:39:49.692Z,129.38
2018-09-05T12:41:42.625Z,129.38
2018-09-05T12:42:42.644Z,129.38
2018-09-05T12:44:35.602Z,129.38
2018-09-05T12:45:35.599Z,129.38
2018-09-05T12:47:28.535Z,129.38
2018-09-05T12:48:28.552Z,129.38
2018-09-05T12:50:21.487Z,129.38
2018-09-05T12:51:21.506Z,129.38
2018-09-05T12:53:14.436Z,129.38
2018-09-05T12:54:14.461Z,129.38
2018-09-05T12:56:07.392Z,129.38
2018-09-05T12:57:07.414Z,129.38
2018-09-05T12:59:00.341Z,129.38
2018-09-05T13:00:00.365Z,129.38
2018-09-05T13:01:53.299Z,129.38
2018-09-05T13:02:53.315Z,129.38
2018-09-05T13:04:46.244Z,129.38
2018-09-05T13:05:46.271Z,129.38
2018-09-05T13:07:39.209Z,129.38
2018-09-05T13:08:39.227Z,129.38
2018-09-05T13:10:32.164Z,129.38
2018-09-05T13:11:32.184Z,129.38
2018-09-05T13:13:25.099Z,129.38
2018-09-05T13:14:25.127Z,129.38
2018-09-05T13:16:18.059Z,129.38
2018-09-05T13:17:18.081Z,129.38
2018-09-05T13:19:11.005Z,129.38
2018-09-05T13:20:11.033Z,129.38
2018-09-05T13:22:04.001Z,129.38
2018-09-05T13:23:03.988Z,129.38
2018-09-05T13:24:56.919Z,129.38
2018-09-05T13:25:56.943Z,129.38
2018-09-05T13:27:49.880Z,129.38
2018-09-05T13:28:49.903Z,129.38
2018-09-05T13:30:42.844Z,129.38
2018-09-05T13:31:42.863Z,129.38
2018-09-05T13:33:35.782Z,129.38
2018-09-05T13:34:35.811Z,129.38
2018-09-05T13:36:28.747Z,129.38
2018-09-05T13:37:28.764Z,129.38
2018-09-05T13:39:21.694Z,129.38
2018-09-05T13:40:21.719Z,129.38
2018-09-05T13:42:14.651Z,129.38
2018-09-05T13:43:14.673Z,129.38
2018-09-05T13:45:07.608Z,129.38
2018-09-05T13:46:07.625Z,129.38
2018-09-05T13:48:00.560Z,129.38
2018-09-05T13:49:00.579Z,129.38
2018-09-05T13:50:53.500Z,129.38
2018-09-05T13:51:53.534Z,129.38
2018-09-05T13:53:46.458Z,129.38
2018-09-05T13:54:46.482Z,129.38
2018-09-05T13:56:39.411Z,129.38
2018-09-05T13:57:39.432Z,129.38
2018-09-05T13:59:32.351Z,129.38
2018-09-05T14:00:32.382Z,129.38
2018-09-05T14:02:25.310Z,129.38
2018-09-05T14:03:25.332Z,129.38
2018-09-05T14:05:18.259Z,129.38
2018-09-05T14:06:18.284Z,129.38
2018-09-05T14:08:11.210Z,129.38
2018-09-05T14:09:11.234Z,129.38
2018-09-05T14:11:04.151Z,129.38
2018-09-05T14:12:04.179Z,129.38
2018-09-05T14:13:57.112Z,129.38
2018-09-05T14:14:57.139Z,129.38
2018-09-05T14:16:50.088Z,129.38
2018-09-05T14:17:50.105Z,129.38
2018-09-05T14:19:43.023Z,129.38
2018-09-05T14:20:43.126Z,129.38
2018-09-05T14:22:35.984Z,129.38
2018-09-05T14:23:36.004Z,129.38
2018-09-05T14:25:28.935Z,129.38
2018-09-05T14:26:28.958Z,129.38
2018-09-05T14:28:21.895Z,129.38
2018-09-05T14:29:21.914Z,129.38
2018-09-05T14:31:14.832Z,129.38
2018-09-05T14:32:14.865Z,129.38
2018-09-05T14:34:07.792Z,129.38
2018-09-05T14:35:07.814Z,123.75
2018-09-05T14:37:00.742Z,123.75
2018-09-05T14:38:00.766Z,123.75
2018-09-05T14:39:53.730Z,123.75
2018-09-05T14:40:53.715Z,123.75
2018-09-05T14:42:46.730Z,123.75
2018-09-05T14:43:46.664Z,123.75
2018-09-05T14:45:39.587Z,123.75
2018-09-05T14:46:39.615Z,123.75
2018-09-05T14:48:32.595Z,123.75
2018-09-05T14:49:32.567Z,123.75
2018-09-05T14:51:25.485Z,123.75
2018-09-05T14:52:25.516Z,123.75
2018-09-05T14:54:18.493Z,123.75
2018-09-05T14:55:18.467Z,123.75
2018-09-05T14:57:11.398Z,123.75
2018-09-05T14:58:11.420Z,123.75
2018-09-05T15:00:04.344Z,123.75
2018-09-05T15:01:04.367Z,123.75
2018-09-05T15:02:57.300Z,118.13
2018-09-05T15:03:57.322Z,118.13
2018-09-05T15:05:50.243Z,118.13
2018-09-05T15:06:50.273Z,118.13
2018-09-05T15:08:43.208Z,118.13
2018-09-05T15:09:43.226Z,118.13
2018-09-05T15:11:36.145Z,118.13
2018-09-05T15:12:36.172Z,118.13
2018-09-05T15:14:29.103Z,118.13
2018-09-05T15:15:29.127Z,118.13
2018-09-05T15:17:22.057Z,118.13
2018-09-05T15:18:22.078Z,118.13
2018-09-05T15:20:14.999Z,118.13
2018-09-05T15:21:15.030Z,118.13
2018-09-05T15:23:07.984Z,118.13
2018-09-05T15:24:08.028Z,118.13
2018-09-05T15:26:00.907Z,118.13
2018-09-05T15:27:00.934Z,118.13
2018-09-05T15:28:53.969Z,112.50
2018-09-05T15:29:53.904Z,112.50
2018-09-05T15:31:46.816Z,112.50
2018-09-05T15:32:46.899Z,112.50
2018-09-05T15:34:39.811Z,112.50
2018-09-05T15:35:39.815Z,112.50
2018-09-05T15:37:33.800Z,112.50
2018-09-05T15:38:32.780Z,112.50
2018-09-05T15:40:25.693Z,112.50
2018-09-05T15:41:25.711Z,112.50
2018-09-05T15:43:18.643Z,112.50
2018-09-05T15:44:18.649Z,112.50
2018-09-05T15:46:11.566Z,106.88
2018-09-05T15:47:11.594Z,106.88
2018-09-05T15:49:04.542Z,106.88
2018-09-05T15:50:04.582Z,106.88
2018-09-05T15:51:57.489Z,106.88
2018-09-05T15:52:57.567Z,106.88
2018-09-05T15:54:50.436Z,106.88
2018-09-05T15:55:50.457Z,106.88
2018-09-05T15:57:43.393Z,106.88
2018-09-05T15:58:43.410Z,106.88
2018-09-05T16:00:36.336Z,106.88
2018-09-05T16:01:36.366Z,106.88
2018-09-05T16:03:29.352Z,101.25
2018-09-05T16:04:29.324Z,101.25
2018-09-05T16:06:22.257Z,101.25
2018-09-05T16:07:22.271Z,101.25
2018-09-05T16:09:15.213Z,101.25
2018-09-05T16:10:15.225Z,101.25
2018-09-05T16:12:08.150Z,101.25
2018-09-05T16:13:08.176Z,101.25
2018-09-05T16:15:01.126Z,101.25
2018-09-05T16:16:01.131Z,95.63
2018-09-05T16:17:54.061Z,95.63
2018-09-05T16:18:54.084Z,95.63
2018-09-05T16:20:47.009Z,95.63
2018-09-05T16:21:47.072Z,95.63
2018-09-05T16:23:39.965Z,95.63
2018-09-05T16:24:39.982Z,95.63
2018-09-05T16:26:32.907Z,90.00
2018-09-05T16:27:32.937Z,90.00
2018-09-05T16:29:25.869Z,90.00
2018-09-05T16:30:25.888Z,90.00
2018-09-05T16:32:18.811Z,90.00
2018-09-05T16:33:18.842Z,90.00
2018-09-05T16:35:11.767Z,90.00
2018-09-05T16:36:11.853Z,84.38
2018-09-05T16:38:04.723Z,84.38
2018-09-05T16:39:04.741Z,84.38
2018-09-05T16:40:57.663Z,84.38
2018-09-05T16:41:57.689Z,84.38
2018-09-05T16:43:50.618Z,84.38
2018-09-05T16:44:50.643Z,78.75
2018-09-05T16:46:43.559Z,78.75
2018-09-05T16:47:43.597Z,78.75
2018-09-05T16:49:36.538Z,78.75
2018-09-05T16:50:36.544Z,78.75
2018-09-05T16:52:29.465Z,73.13
2018-09-05T16:53:29.498Z,73.13
2018-09-05T16:55:22.419Z,73.13
2018-09-05T16:56:22.436Z,73.13
2018-09-05T16:58:15.367Z,73.13
2018-09-05T16:59:15.392Z,67.50
2018-09-05T17:01:08.370Z,67.50
2018-09-05T17:02:08.332Z,67.50
2018-09-05T17:04:01.259Z,67.50
2018-09-05T17:05:01.279Z,67.50
2018-09-05T17:06:55.198Z,61.88
2018-09-05T17:07:55.226Z,61.88
2018-09-05T17:09:48.185Z,61.88
2018-09-05T17:10:48.172Z,61.88
2018-09-05T17:12:41.108Z,56.25
2018-09-05T17:13:41.133Z,56.25
2018-09-05T17:15:34.069Z,56.25
2018-09-05T17:16:34.085Z,56.25
2018-09-05T17:18:27.018Z,50.63
2018-09-05T17:19:27.038Z,50.63
2018-09-05T17:21:19.956Z,50.63
2018-09-05T17:22:20.030Z,50.63
2018-09-05T17:24:12.915Z,45.00
2018-09-05T17:25:12.940Z,45.00
2018-09-05T17:27:05.852Z,45.00
2018-09-05T17:28:05.877Z,39.38
2018-09-05T17:29:58.806Z,39.38
2018-09-05T17:30:58.822Z,39.38
2018-09-05T17:32:51.743Z,33.75
2018-09-05T17:33:51.771Z,33.75
2018-09-05T17:35:44.974Z,28.13
2018-09-05T17:36:44.724Z,28.13
2018-09-05T17:38:37.651Z,28.13
2018-09-05T17:39:37.682Z,28.13
2018-09-05T17:41:30.589Z,22.50
2018-09-05T17:42:30.617Z,22.50
2018-09-05T17:44:24.242Z,22.50
2018-09-05T17:47:16.511Z,16.88
2018-09-05T17:48:16.523Z,16.88
2018-09-05T17:50:09.453Z,16.88
2018-09-05T17:51:09.472Z,16.88
2018-09-05T17:53:02.392Z,11.25
2018-09-05T17:54:02.419Z,11.25
2018-09-05T17:55:55.363Z,11.25
2018-09-05T17:56:55.379Z,11.25
2018-09-05T17:58:48.307Z,11.25
2018-09-05T17:59:48.329Z,11.25
2018-09-05T18:01:41.245Z,5.63
2018-09-05T18:02:41.267Z,5.63
2018-09-05T18:04:34.197Z,5.63
2018-09-05T18:05:34.212Z,5.63
2018-09-05T18:07:27.131Z,5.63
2018-09-05T18:08:27.161Z,5.63
2018-09-05T18:10:20.085Z,0.00
2018-09-05T18:11:20.102Z,0.00
2018-09-05T18:13:13.030Z,0.00
2018-09-05T18:14:13.055Z,0.00
2018-09-05T18:16:05.987Z,0.00
2018-09-05T18:17:06.010Z,0.00
2018-09-05T18:18:58.939Z,0.00
2018-09-05T18:19:58.972Z,0.00
2018-09-05T18:21:51.873Z,0.00
2018-09-05T18:22:51.900Z,0.00
2018-09-05T18:24:44.825Z,0.00